KLGUKENV

Guest
Details From KLGU - LOGAN CACHE
To KENV - Wendover
Flight Number -
Tags generated
Created
Modified
Stats Distance 117 nm / 217 km
Max Altitude 10,300 ft / 3,139 m
Waypoints 3
Social Downloads 2
Likes 0
Share VATSIM

Download

Looking for another format? Having issues loading an existing format? Contact us
Advertisement - Login to hide

Notes

Basic altitude profile: - Ascent Rate: 2500ft/min - Ascent Speed: 250kts - Cruise Altitude: 35000ft - Cruise Speed: 420kts - Descent Rate: 1500ft/min - Descent Speed: 250kts Options: - Use NATs: yes - Use PACOTS: yes - Use low airways: yes - Use high airways: yes

Route

KLGU KREBS KENV

ID Type Via Altitude Latitude Longitude Leg Dist Tot Dist Heading (true) Name
O KLGU APT - 0 ft / 0 m 41.78890˚ -111.85462˚ - 0 nm - LOGAN CACHE
KREBS FIX - 10,300 ft / 3,139 m 41.48879˚ -112.43471˚ 31 nm 31 nm 236° / 235° -
O KENV APT - 0 ft / 0 m 40.71870˚ -114.03089˚ 85 nm 117 nm 238° / 237° Wendover

Altitude Profile

Advertisement - Login to hide

KLGU

Details ICAO KLGU (LGU)
Name LOGAN CACHE
Region United States
Timezone America/Denver (UTC-7.0)
Stats Elevation 4,457 ft / 1,358 m (AMSL)
Location 41.788897° -111.854623°
Runways 3
Magnetic Variation 11.563° E

METAR

KLGU 180751Z AUTO 00000KT 10SM OVC050 M01/M05 A3024 RMK AO2 SLP255 T10111050 $

Decode

TAF

KLGU 180528Z 1806/1906 VRB03KT P6SM OVC050 FM181900 VRB04KT P6SM SCT060 BKN110 FM190200 00000KT P6SM BKN150

Decode

Departure Runways

ID Width Length Bearing (true) Bearing (mag) Surface Threshold Offset Overrun Length
05 151 ft / 46 m 4,624 ft / 1,409 m 64.16° 52.60° Gravel 0 ft / 0 m 0 ft / 0 m
10 98 ft / 30 m 4,992 ft / 1,522 m 122.37° 110.81° Asphalt 0 ft / 0 m 0 ft / 0 m
17 98 ft / 30 m 9,106 ft / 2,775 m 182.71° 171.15° Asphalt 0 ft / 0 m 220 ft / 67 m
23 151 ft / 46 m 4,624 ft / 1,409 m 244.17° 232.61° Gravel 0 ft / 0 m 0 ft / 0 m
28 98 ft / 30 m 4,992 ft / 1,522 m 302.38° 290.82° Asphalt 151 ft / 46 m 0 ft / 0 m
35 98 ft / 30 m 9,106 ft / 2,775 m 2.71° 351.15° Asphalt 0 ft / 0 m 220 ft / 67 m

KENV

Details ICAO KENV (ENV)
Name Wendover
Region United States
Timezone America/Denver (UTC-7.0)
Stats Elevation 4,237 ft / 1,291 m (AMSL)
Location 40.718696° -114.030890°
Runways 2
Magnetic Variation 12.146° E

METAR

KENV 180756Z AUTO 32003KT 10SM CLR M06/M09 A3027 RMK AO2 SLP285 T10561089 FZRANO

Decode

TAF

KENV 180528Z 1806/1906 VRB04KT P6SM BKN070 FM180900 VRB03KT P6SM FEW070 BKN200

Decode

Destination Runways

ID Width Length Bearing (true) Bearing (mag) Surface Threshold Offset Overrun Length
08 150 ft / 46 m 7,980 ft / 2,432 m 89.96° 77.81° Asphalt 0 ft / 0 m 100 ft / 30 m
12 100 ft / 30 m 7,997 ft / 2,438 m 135.07° 122.92° Asphalt 0 ft / 0 m 30 ft / 9 m
26 150 ft / 46 m 7,980 ft / 2,432 m 269.98° 257.83° Asphalt 0 ft / 0 m 100 ft / 30 m
30 100 ft / 30 m 7,997 ft / 2,438 m 315.08° 302.93° Asphalt 0 ft / 0 m 300 ft / 91 m

Popular Alternatives